sensor_id;sensor_type;location;lat;lon;timestamp;P1;durP1;ratioP1;P2;durP2;ratioP2
47103;SDS011;32853;52.164;5.400;2023-04-21T00:00:04;12.63;;;6.90;;
47103;SDS011;32853;52.164;5.400;2023-04-21T00:02:33;15.23;;;7.15;;
47103;SDS011;32853;52.164;5.400;2023-04-21T00:05:03;18.83;;;7.40;;
47103;SDS011;32853;52.164;5.400;2023-04-21T00:07:29;15.27;;;7.63;;
47103;SDS011;32853;52.164;5.400;2023-04-21T00:09:55;16.10;;;8.40;;
47103;SDS011;32853;52.164;5.400;2023-04-21T00:12:20;13.73;;;7.50;;
47103;SDS011;32853;52.164;5.400;2023-04-21T00:14:45;15.95;;;8.32;;
47103;SDS011;32853;52.164;5.400;2023-04-21T00:17:11;15.75;;;8.50;;
47103;SDS011;32853;52.164;5.400;2023-04-21T00:22:06;19.10;;;8.48;;
47103;SDS011;32853;52.164;5.400;2023-04-21T00:24:36;16.52;;;8.73;;
47103;SDS011;32853;52.164;5.400;2023-04-21T00:27:01;17.50;;;8.48;;
47103;SDS011;32853;52.164;5.400;2023-04-21T00:32:05;16.02;;;8.57;;
47103;SDS011;32853;52.164;5.400;2023-04-21T00:34:33;18.25;;;10.05;;
47103;SDS011;32853;52.164;5.400;2023-04-21T00:36:59;18.10;;;8.93;;
47103;SDS011;32853;52.164;5.400;2023-04-21T00:39:25;24.17;;;10.57;;
47103;SDS011;32853;52.164;5.400;2023-04-21T00:41:57;21.88;;;9.77;;
47103;SDS011;32853;52.164;5.400;2023-04-21T00:44:27;16.83;;;9.55;;
47103;SDS011;32853;52.164;5.400;2023-04-21T00:49:49;21.60;;;11.15;;
47103;SDS011;32853;52.164;5.400;2023-04-21T00:52:16;20.52;;;10.45;;
47103;SDS011;32853;52.164;5.400;2023-04-21T00:54:42;20.67;;;10.00;;
47103;SDS011;32853;52.164;5.400;2023-04-21T00:57:12;22.65;;;11.23;;
47103;SDS011;32853;52.164;5.400;2023-04-21T00:59:53;23.23;;;9.77;;
47103;SDS011;32853;52.164;5.400;2023-04-21T01:02:20;20.73;;;11.05;;
47103;SDS011;32853;52.164;5.400;2023-04-21T01:04:48;19.10;;;10.05;;
47103;SDS011;32853;52.164;5.400;2023-04-21T01:07:15;23.73;;;11.13;;
47103;SDS011;32853;52.164;5.400;2023-04-21T01:09:53;23.38;;;11.43;;
47103;SDS011;32853;52.164;5.400;2023-04-21T01:12:27;17.55;;;9.63;;
47103;SDS011;32853;52.164;5.400;2023-04-21T01:14:52;19.30;;;10.55;;
47103;SDS011;32853;52.164;5.400;2023-04-21T01:17:19;21.83;;;10.40;;
47103;SDS011;32853;52.164;5.400;2023-04-21T01:24:53;19.95;;;9.80;;
47103;SDS011;32853;52.164;5.400;2023-04-21T01:27:19;23.38;;;10.20;;
47103;SDS011;32853;52.164;5.400;2023-04-21T01:29:46;21.27;;;9.73;;
47103;SDS011;32853;52.164;5.400;2023-04-21T01:32:17;20.15;;;10.70;;
47103;SDS011;32853;52.164;5.400;2023-04-21T01:34:44;31.02;;;12.05;;
47103;SDS011;32853;52.164;5.400;2023-04-21T01:39:46;22.73;;;12.63;;
47103;SDS011;32853;52.164;5.400;2023-04-21T01:42:16;21.60;;;11.18;;
47103;SDS011;32853;52.164;5.400;2023-04-21T01:44:45;22.88;;;10.95;;
47103;SDS011;32853;52.164;5.400;2023-04-21T01:47:12;25.52;;;11.20;;
47103;SDS011;32853;52.164;5.400;2023-04-21T01:49:37;25.75;;;12.07;;
47103;SDS011;32853;52.164;5.400;2023-04-21T01:52:12;19.88;;;10.90;;
47103;SDS011;32853;52.164;5.400;2023-04-21T01:54:54;18.25;;;10.00;;
47103;SDS011;32853;52.164;5.400;2023-04-21T01:57:22;18.38;;;10.68;;
47103;SDS011;32853;52.164;5.400;2023-04-21T01:59:47;20.70;;;10.80;;
47103;SDS011;32853;52.164;5.400;2023-04-21T02:02:13;24.42;;;10.73;;
47103;SDS011;32853;52.164;5.400;2023-04-21T02:04:39;25.73;;;11.23;;
47103;SDS011;32853;52.164;5.400;2023-04-21T02:07:04;22.35;;;11.32;;
47103;SDS011;32853;52.164;5.400;2023-04-21T02:09:30;26.85;;;11.95;;
47103;SDS011;32853;52.164;5.400;2023-04-21T02:11:58;17.48;;;9.88;;
47103;SDS011;32853;52.164;5.400;2023-04-21T02:14:24;24.02;;;12.65;;
47103;SDS011;32853;52.164;5.400;2023-04-21T02:16:50;26.05;;;12.02;;
47103;SDS011;32853;52.164;5.400;2023-04-21T02:19:15;24.15;;;12.43;;
47103;SDS011;32853;52.164;5.400;2023-04-21T02:21:40;21.70;;;11.65;;
47103;SDS011;32853;52.164;5.400;2023-04-21T02:24:06;32.70;;;12.88;;
47103;SDS011;32853;52.164;5.400;2023-04-21T02:26:31;23.55;;;12.15;;
47103;SDS011;32853;52.164;5.400;2023-04-21T02:28:56;26.05;;;12.05;;
47103;SDS011;32853;52.164;5.400;2023-04-21T02:31:22;29.13;;;14.27;;
47103;SDS011;32853;52.164;5.400;2023-04-21T02:33:47;23.40;;;12.20;;
47103;SDS011;32853;52.164;5.400;2023-04-21T02:36:18;24.00;;;11.38;;
47103;SDS011;32853;52.164;5.400;2023-04-21T02:38:56;25.35;;;10.95;;
47103;SDS011;32853;52.164;5.400;2023-04-21T02:41:26;24.25;;;12.48;;
47103;SDS011;32853;52.164;5.400;2023-04-21T02:44:06;25.55;;;12.63;;
47103;SDS011;32853;52.164;5.400;2023-04-21T02:46:40;27.52;;;10.88;;
47103;SDS011;32853;52.164;5.400;2023-04-21T02:49:07;23.95;;;12.18;;
47103;SDS011;32853;52.164;5.400;2023-04-21T02:51:35;24.33;;;12.07;;
47103;SDS011;32853;52.164;5.400;2023-04-21T02:54:00;27.52;;;12.52;;
47103;SDS011;32853;52.164;5.400;2023-04-21T02:56:27;22.95;;;11.48;;
47103;SDS011;32853;52.164;5.400;2023-04-21T02:58:56;22.30;;;12.15;;
47103;SDS011;32853;52.164;5.400;2023-04-21T03:03:59;24.73;;;12.45;;
47103;SDS011;32853;52.164;5.400;2023-04-21T03:06:27;22.88;;;10.90;;
47103;SDS011;32853;52.164;5.400;2023-04-21T03:08:54;21.52;;;11.82;;
47103;SDS011;32853;52.164;5.400;2023-04-21T03:11:22;21.20;;;11.20;;
47103;SDS011;32853;52.164;5.400;2023-04-21T03:13:48;31.23;;;13.75;;
47103;SDS011;32853;52.164;5.400;2023-04-21T03:18:44;26.13;;;11.57;;
47103;SDS011;32853;52.164;5.400;2023-04-21T03:21:09;20.95;;;11.10;;
47103;SDS011;32853;52.164;5.400;2023-04-21T03:23:35;25.98;;;12.88;;
47103;SDS011;32853;52.164;5.400;2023-04-21T03:26:04;34.30;;;12.82;;
47103;SDS011;32853;52.164;5.400;2023-04-21T03:28:30;21.63;;;11.45;;
47103;SDS011;32853;52.164;5.400;2023-04-21T03:30:56;29.85;;;13.38;;
47103;SDS011;32853;52.164;5.400;2023-04-21T03:33:24;27.33;;;13.02;;
47103;SDS011;32853;52.164;5.400;2023-04-21T03:35:55;24.00;;;12.25;;
47103;SDS011;32853;52.164;5.400;2023-04-21T03:38:22;19.83;;;11.98;;
47103;SDS011;32853;52.164;5.400;2023-04-21T03:40:47;24.48;;;11.77;;
47103;SDS011;32853;52.164;5.400;2023-04-21T03:43:13;22.25;;;11.45;;
47103;SDS011;32853;52.164;5.400;2023-04-21T03:45:38;29.10;;;12.88;;
47103;SDS011;32853;52.164;5.400;2023-04-21T03:48:03;23.50;;;12.68;;
47103;SDS011;32853;52.164;5.400;2023-04-21T03:50:29;27.95;;;12.25;;
47103;SDS011;32853;52.164;5.400;2023-04-21T03:52:54;24.42;;;13.18;;
47103;SDS011;32853;52.164;5.400;2023-04-21T03:55:20;24.65;;;13.23;;
47103;SDS011;32853;52.164;5.400;2023-04-21T03:57:45;25.08;;;13.60;;
47103;SDS011;32853;52.164;5.400;2023-04-21T04:00:10;26.05;;;12.18;;
47103;SDS011;32853;52.164;5.400;2023-04-21T04:02:38;25.95;;;12.90;;
47103;SDS011;32853;52.164;5.400;2023-04-21T04:05:04;25.30;;;12.82;;
47103;SDS011;32853;52.164;5.400;2023-04-21T04:07:30;21.88;;;11.90;;
47103;SDS011;32853;52.164;5.400;2023-04-21T04:09:56;24.85;;;12.55;;
47103;SDS011;32853;52.164;5.400;2023-04-21T04:12:21;25.52;;;11.85;;
47103;SDS011;32853;52.164;5.400;2023-04-21T04:14:47;26.05;;;11.70;;
47103;SDS011;32853;52.164;5.400;2023-04-21T04:17:12;24.92;;;12.65;;
47103;SDS011;32853;52.164;5.400;2023-04-21T04:19:37;28.10;;;12.52;;
47103;SDS011;32853;52.164;5.400;2023-04-21T04:22:03;28.17;;;12.45;;
47103;SDS011;32853;52.164;5.400;2023-04-21T04:24:28;25.23;;;12.63;;
47103;SDS011;32853;52.164;5.400;2023-04-21T04:26:57;25.75;;;11.60;;
47103;SDS011;32853;52.164;5.400;2023-04-21T04:29:23;23.02;;;12.32;;
47103;SDS011;32853;52.164;5.400;2023-04-21T04:31:49;22.73;;;12.85;;
47103;SDS011;32853;52.164;5.400;2023-04-21T04:34:14;25.92;;;13.88;;
47103;SDS011;32853;52.164;5.400;2023-04-21T04:36:40;26.58;;;13.80;;
47103;SDS011;32853;52.164;5.400;2023-04-21T04:39:06;28.80;;;13.45;;
47103;SDS011;32853;52.164;5.400;2023-04-21T04:41:34;18.50;;;10.75;;
47103;SDS011;32853;52.164;5.400;2023-04-21T04:44:00;21.08;;;11.13;;
47103;SDS011;32853;52.164;5.400;2023-04-21T04:46:29;25.40;;;12.98;;
47103;SDS011;32853;52.164;5.400;2023-04-21T04:48:57;23.88;;;12.82;;
47103;SDS011;32853;52.164;5.400;2023-04-21T04:51:23;27.05;;;13.18;;
47103;SDS011;32853;52.164;5.400;2023-04-21T04:53:48;25.05;;;13.32;;
47103;SDS011;32853;52.164;5.400;2023-04-21T04:56:28;33.38;;;14.80;;
47103;SDS011;32853;52.164;5.400;2023-04-21T04:58:55;29.52;;;12.95;;
47103;SDS011;32853;52.164;5.400;2023-04-21T05:03:56;25.65;;;13.27;;
47103;SDS011;32853;52.164;5.400;2023-04-21T05:06:22;22.50;;;13.10;;
47103;SDS011;32853;52.164;5.400;2023-04-21T05:11:30;27.63;;;15.00;;
47103;SDS011;32853;52.164;5.400;2023-04-21T05:13:56;29.92;;;13.52;;
47103;SDS011;32853;52.164;5.400;2023-04-21T05:16:21;29.70;;;14.85;;
47103;SDS011;32853;52.164;5.400;2023-04-21T05:18:46;33.50;;;14.90;;
47103;SDS011;32853;52.164;5.400;2023-04-21T05:21:21;31.30;;;15.52;;
47103;SDS011;32853;52.164;5.400;2023-04-21T05:26:19;32.53;;;15.65;;
47103;SDS011;32853;52.164;5.400;2023-04-21T05:28:45;30.00;;;14.68;;
47103;SDS011;32853;52.164;5.400;2023-04-21T05:31:21;27.52;;;14.80;;
47103;SDS011;32853;52.164;5.400;2023-04-21T05:33:47;26.00;;;15.07;;
47103;SDS011;32853;52.164;5.400;2023-04-21T05:36:12;31.60;;;14.82;;
47103;SDS011;32853;52.164;5.400;2023-04-21T05:38:45;26.95;;;14.02;;
47103;SDS011;32853;52.164;5.400;2023-04-21T05:41:10;32.28;;;15.32;;
47103;SDS011;32853;52.164;5.400;2023-04-21T05:43:35;28.75;;;14.90;;
47103;SDS011;32853;52.164;5.400;2023-04-21T05:46:02;26.20;;;14.77;;
47103;SDS011;32853;52.164;5.400;2023-04-21T05:48:34;35.63;;;17.63;;
47103;SDS011;32853;52.164;5.400;2023-04-21T05:54:07;31.02;;;16.45;;
47103;SDS011;32853;52.164;5.400;2023-04-21T05:56:32;36.90;;;16.02;;
47103;SDS011;32853;52.164;5.400;2023-04-21T05:58:57;29.50;;;16.15;;
47103;SDS011;32853;52.164;5.400;2023-04-21T06:01:24;28.55;;;15.73;;
47103;SDS011;32853;52.164;5.400;2023-04-21T06:03:59;29.23;;;16.45;;
47103;SDS011;32853;52.164;5.400;2023-04-21T06:06:25;31.42;;;16.33;;
47103;SDS011;32853;52.164;5.400;2023-04-21T06:08:52;39.20;;;17.48;;
47103;SDS011;32853;52.164;5.400;2023-04-21T06:11:17;30.92;;;16.58;;
47103;SDS011;32853;52.164;5.400;2023-04-21T06:13:56;28.75;;;15.93;;
47103;SDS011;32853;52.164;5.400;2023-04-21T06:16:23;32.78;;;16.35;;
47103;SDS011;32853;52.164;5.400;2023-04-21T06:18:48;35.67;;;17.73;;
47103;SDS011;32853;52.164;5.400;2023-04-21T06:21:21;33.15;;;16.13;;
47103;SDS011;32853;52.164;5.400;2023-04-21T06:23:46;35.60;;;16.00;;
47103;SDS011;32853;52.164;5.400;2023-04-21T06:26:18;35.72;;;16.02;;
47103;SDS011;32853;52.164;5.400;2023-04-21T06:31:18;31.67;;;14.98;;
47103;SDS011;32853;52.164;5.400;2023-04-21T06:33:49;30.42;;;16.20;;
47103;SDS011;32853;52.164;5.400;2023-04-21T06:36:16;33.33;;;15.25;;
47103;SDS011;32853;52.164;5.400;2023-04-21T06:38:41;30.42;;;17.15;;
47103;SDS011;32853;52.164;5.400;2023-04-21T06:41:08;32.67;;;15.20;;
47103;SDS011;32853;52.164;5.400;2023-04-21T06:43:40;33.17;;;15.40;;
47103;SDS011;32853;52.164;5.400;2023-04-21T06:46:06;32.58;;;16.55;;
47103;SDS011;32853;52.164;5.400;2023-04-21T06:48:32;31.00;;;16.23;;
47103;SDS011;32853;52.164;5.400;2023-04-21T06:51:04;30.98;;;16.63;;
47103;SDS011;32853;52.164;5.400;2023-04-21T06:53:36;31.25;;;14.73;;
47103;SDS011;32853;52.164;5.400;2023-04-21T06:56:02;28.15;;;15.85;;
47103;SDS011;32853;52.164;5.400;2023-04-21T06:58:27;31.95;;;17.02;;
47103;SDS011;32853;52.164;5.400;2023-04-21T07:00:58;32.08;;;17.63;;
47103;SDS011;32853;52.164;5.400;2023-04-21T07:03:24;34.15;;;15.90;;
47103;SDS011;32853;52.164;5.400;2023-04-21T07:05:56;34.92;;;18.02;;
47103;SDS011;32853;52.164;5.400;2023-04-21T07:08:38;30.65;;;16.52;;
47103;SDS011;32853;52.164;5.400;2023-04-21T07:11:05;36.13;;;17.52;;
47103;SDS011;32853;52.164;5.400;2023-04-21T07:13:30;31.35;;;17.23;;
47103;SDS011;32853;52.164;5.400;2023-04-21T07:15:55;31.70;;;17.08;;
47103;SDS011;32853;52.164;5.400;2023-04-21T07:18:21;40.80;;;19.52;;
47103;SDS011;32853;52.164;5.400;2023-04-21T07:20:48;37.33;;;19.52;;
47103;SDS011;32853;52.164;5.400;2023-04-21T07:23:13;42.53;;;20.40;;
47103;SDS011;32853;52.164;5.400;2023-04-21T07:25:40;50.60;;;26.85;;
47103;SDS011;32853;52.164;5.400;2023-04-21T07:28:05;34.72;;;19.13;;
47103;SDS011;32853;52.164;5.400;2023-04-21T07:30:42;30.25;;;16.17;;
47103;SDS011;32853;52.164;5.400;2023-04-21T07:33:07;37.85;;;18.45;;
47103;SDS011;32853;52.164;5.400;2023-04-21T07:35:36;37.47;;;17.88;;
47103;SDS011;32853;52.164;5.400;2023-04-21T07:38:01;33.00;;;18.70;;
47103;SDS011;32853;52.164;5.400;2023-04-21T07:40:45;39.13;;;18.52;;
47103;SDS011;32853;52.164;5.400;2023-04-21T07:43:10;32.33;;;18.10;;
47103;SDS011;32853;52.164;5.400;2023-04-21T07:45:41;36.92;;;19.00;;
47103;SDS011;32853;52.164;5.400;2023-04-21T07:48:13;37.97;;;19.55;;
47103;SDS011;32853;52.164;5.400;2023-04-21T07:50:38;40.88;;;18.48;;
47103;SDS011;32853;52.164;5.400;2023-04-21T07:53:03;30.42;;;18.33;;
47103;SDS011;32853;52.164;5.400;2023-04-21T07:55:29;39.20;;;19.63;;
47103;SDS011;32853;52.164;5.400;2023-04-21T07:57:54;37.63;;;19.50;;
47103;SDS011;32853;52.164;5.400;2023-04-21T08:00:27;33.88;;;18.83;;
47103;SDS011;32853;52.164;5.400;2023-04-21T08:02:53;35.40;;;17.27;;
47103;SDS011;32853;52.164;5.400;2023-04-21T08:05:18;33.60;;;19.60;;
47103;SDS011;32853;52.164;5.400;2023-04-21T08:07:52;33.63;;;18.38;;
47103;SDS011;32853;52.164;5.400;2023-04-21T08:10:20;33.92;;;18.98;;
47103;SDS011;32853;52.164;5.400;2023-04-21T08:12:52;39.60;;;19.33;;
47103;SDS011;32853;52.164;5.400;2023-04-21T08:15:18;36.17;;;20.42;;
47103;SDS011;32853;52.164;5.400;2023-04-21T08:20:16;35.20;;;18.67;;
47103;SDS011;32853;52.164;5.400;2023-04-21T08:22:55;33.30;;;19.25;;
47103;SDS011;32853;52.164;5.400;2023-04-21T08:25:25;35.13;;;19.70;;
47103;SDS011;32853;52.164;5.400;2023-04-21T08:27:50;30.67;;;18.00;;
47103;SDS011;32853;52.164;5.400;2023-04-21T08:30:16;29.92;;;18.27;;
47103;SDS011;32853;52.164;5.400;2023-04-21T08:32:41;39.25;;;18.23;;
47103;SDS011;32853;52.164;5.400;2023-04-21T08:35:07;34.72;;;17.50;;
47103;SDS011;32853;52.164;5.400;2023-04-21T08:37:34;37.92;;;19.20;;
47103;SDS011;32853;52.164;5.400;2023-04-21T08:42:44;37.78;;;20.30;;
47103;SDS011;32853;52.164;5.400;2023-04-21T08:45:16;38.10;;;19.30;;
47103;SDS011;32853;52.164;5.400;2023-04-21T08:47:41;30.27;;;16.33;;
47103;SDS011;32853;52.164;5.400;2023-04-21T08:50:07;33.28;;;17.90;;
47103;SDS011;32853;52.164;5.400;2023-04-21T08:55:06;27.90;;;15.60;;
47103;SDS011;32853;52.164;5.400;2023-04-21T08:57:44;29.05;;;17.05;;
47103;SDS011;32853;52.164;5.400;2023-04-21T09:02:55;31.10;;;17.25;;
47103;SDS011;32853;52.164;5.400;2023-04-21T09:05:22;27.85;;;17.45;;
47103;SDS011;32853;52.164;5.400;2023-04-21T09:07:52;31.70;;;17.35;;
47103;SDS011;32853;52.164;5.400;2023-04-21T09:10:30;35.53;;;17.23;;
47103;SDS011;32853;52.164;5.400;2023-04-21T09:12:55;35.50;;;16.55;;
47103;SDS011;32853;52.164;5.400;2023-04-21T09:15:24;33.78;;;17.83;;
47103;SDS011;32853;52.164;5.400;2023-04-21T09:17:53;30.92;;;17.48;;
47103;SDS011;32853;52.164;5.400;2023-04-21T09:20:21;31.57;;;18.50;;
47103;SDS011;32853;52.164;5.400;2023-04-21T09:22:47;33.90;;;18.40;;
47103;SDS011;32853;52.164;5.400;2023-04-21T09:25:15;30.70;;;17.30;;
47103;SDS011;32853;52.164;5.400;2023-04-21T09:27:45;30.73;;;17.33;;
47103;SDS011;32853;52.164;5.400;2023-04-21T09:30:18;34.88;;;18.75;;
47103;SDS011;32853;52.164;5.400;2023-04-21T09:32:44;27.77;;;17.65;;
47103;SDS011;32853;52.164;5.400;2023-04-21T09:35:16;33.05;;;17.65;;
47103;SDS011;32853;52.164;5.400;2023-04-21T09:37:44;37.15;;;20.73;;
47103;SDS011;32853;52.164;5.400;2023-04-21T09:42:45;26.70;;;17.23;;
47103;SDS011;32853;52.164;5.400;2023-04-21T09:45:11;28.02;;;17.02;;
47103;SDS011;32853;52.164;5.400;2023-04-21T09:47:39;25.33;;;16.05;;
47103;SDS011;32853;52.164;5.400;2023-04-21T09:50:06;27.98;;;16.75;;
47103;SDS011;32853;52.164;5.400;2023-04-21T09:52:32;26.48;;;16.48;;
47103;SDS011;32853;52.164;5.400;2023-04-21T09:55:03;28.85;;;15.77;;
47103;SDS011;32853;52.164;5.400;2023-04-21T09:57:47;27.23;;;15.00;;
47103;SDS011;32853;52.164;5.400;2023-04-21T10:00:28;23.23;;;14.80;;
47103;SDS011;32853;52.164;5.400;2023-04-21T10:02:59;25.73;;;16.17;;
47103;SDS011;32853;52.164;5.400;2023-04-21T10:05:30;29.40;;;15.75;;
47103;SDS011;32853;52.164;5.400;2023-04-21T10:07:55;27.92;;;15.73;;
47103;SDS011;32853;52.164;5.400;2023-04-21T10:10:24;27.35;;;16.55;;
47103;SDS011;32853;52.164;5.400;2023-04-21T10:12:51;34.58;;;16.60;;
47103;SDS011;32853;52.164;5.400;2023-04-21T10:18:20;26.25;;;15.93;;
47103;SDS011;32853;52.164;5.400;2023-04-21T10:20:52;26.85;;;15.73;;
47103;SDS011;32853;52.164;5.400;2023-04-21T10:23:35;34.22;;;16.05;;
47103;SDS011;32853;52.164;5.400;2023-04-21T10:26:07;28.08;;;15.88;;
47103;SDS011;32853;52.164;5.400;2023-04-21T10:28:58;30.10;;;16.48;;
47103;SDS011;32853;52.164;5.400;2023-04-21T10:34:28;27.70;;;16.45;;
47103;SDS011;32853;52.164;5.400;2023-04-21T10:44:44;29.63;;;15.35;;
47103;SDS011;32853;52.164;5.400;2023-04-21T10:52:37;25.20;;;15.70;;
47103;SDS011;32853;52.164;5.400;2023-04-21T10:55:03;26.55;;;15.75;;
47103;SDS011;32853;52.164;5.400;2023-04-21T10:57:32;28.92;;;16.20;;
47103;SDS011;32853;52.164;5.400;2023-04-21T10:59:58;25.52;;;15.80;;
47103;SDS011;32853;52.164;5.400;2023-04-21T11:02:24;29.35;;;15.32;;
47103;SDS011;32853;52.164;5.400;2023-04-21T11:04:50;29.90;;;16.33;;
47103;SDS011;32853;52.164;5.400;2023-04-21T11:07:20;23.80;;;14.10;;
47103;SDS011;32853;52.164;5.400;2023-04-21T11:09:47;30.02;;;15.30;;
47103;SDS011;32853;52.164;5.400;2023-04-21T11:12:25;24.60;;;15.05;;
47103;SDS011;32853;52.164;5.400;2023-04-21T11:14:58;24.85;;;15.32;;
47103;SDS011;32853;52.164;5.400;2023-04-21T11:17:23;26.02;;;15.27;;
47103;SDS011;32853;52.164;5.400;2023-04-21T11:19:52;24.00;;;14.98;;
47103;SDS011;32853;52.164;5.400;2023-04-21T11:22:25;25.48;;;15.63;;
47103;SDS011;32853;52.164;5.400;2023-04-21T11:24:52;25.33;;;14.43;;
47103;SDS011;32853;52.164;5.400;2023-04-21T11:27:21;29.77;;;15.63;;
47103;SDS011;32853;52.164;5.400;2023-04-21T11:29:49;26.08;;;14.00;;
47103;SDS011;32853;52.164;5.400;2023-04-21T11:32:15;22.20;;;14.60;;
47103;SDS011;32853;52.164;5.400;2023-04-21T11:34:44;30.73;;;17.02;;
47103;SDS011;32853;52.164;5.400;2023-04-21T11:37:13;26.80;;;15.50;;
47103;SDS011;32853;52.164;5.400;2023-04-21T11:39:40;29.50;;;15.45;;
47103;SDS011;32853;52.164;5.400;2023-04-21T11:42:07;24.52;;;14.73;;
47103;SDS011;32853;52.164;5.400;2023-04-21T11:44:40;30.17;;;17.13;;
47103;SDS011;32853;52.164;5.400;2023-04-21T11:49:42;26.40;;;15.55;;
47103;SDS011;32853;52.164;5.400;2023-04-21T11:54:58;26.83;;;13.23;;
47103;SDS011;32853;52.164;5.400;2023-04-21T11:57:28;22.83;;;13.27;;
47103;SDS011;32853;52.164;5.400;2023-04-21T12:00:02;21.00;;;13.43;;
47103;SDS011;32853;52.164;5.400;2023-04-21T12:02:34;22.30;;;12.90;;
47103;SDS011;32853;52.164;5.400;2023-04-21T12:05:00;23.60;;;13.93;;
47103;SDS011;32853;52.164;5.400;2023-04-21T12:07:37;21.70;;;14.02;;
47103;SDS011;32853;52.164;5.400;2023-04-21T12:10:11;24.02;;;13.85;;
47103;SDS011;32853;52.164;5.400;2023-04-21T12:12:44;25.02;;;13.73;;
47103;SDS011;32853;52.164;5.400;2023-04-21T12:15:10;25.33;;;12.80;;
47103;SDS011;32853;52.164;5.400;2023-04-21T12:17:43;23.92;;;13.15;;
47103;SDS011;32853;52.164;5.400;2023-04-21T12:20:10;23.52;;;12.60;;
47103;SDS011;32853;52.164;5.400;2023-04-21T12:22:36;21.63;;;12.20;;
47103;SDS011;32853;52.164;5.400;2023-04-21T12:25:03;24.90;;;12.50;;
47103;SDS011;32853;52.164;5.400;2023-04-21T12:27:29;23.85;;;12.65;;
47103;SDS011;32853;52.164;5.400;2023-04-21T12:29:54;19.88;;;12.07;;
47103;SDS011;32853;52.164;5.400;2023-04-21T12:32:20;19.13;;;11.73;;
47103;SDS011;32853;52.164;5.400;2023-04-21T12:34:45;20.27;;;12.40;;
47103;SDS011;32853;52.164;5.400;2023-04-21T12:37:11;17.17;;;11.80;;
47103;SDS011;32853;52.164;5.400;2023-04-21T12:39:36;26.20;;;12.68;;
47103;SDS011;32853;52.164;5.400;2023-04-21T12:42:02;18.00;;;11.57;;
47103;SDS011;32853;52.164;5.400;2023-04-21T12:44:27;19.50;;;12.27;;
47103;SDS011;32853;52.164;5.400;2023-04-21T12:49:30;20.50;;;12.00;;
47103;SDS011;32853;52.164;5.400;2023-04-21T12:51:56;23.05;;;11.48;;
47103;SDS011;32853;52.164;5.400;2023-04-21T12:54:21;24.98;;;12.75;;
47103;SDS011;32853;52.164;5.400;2023-04-21T12:56:47;24.65;;;12.48;;
47103;SDS011;32853;52.164;5.400;2023-04-21T12:59:12;22.55;;;13.13;;
47103;SDS011;32853;52.164;5.400;2023-04-21T13:01:38;21.55;;;11.65;;
47103;SDS011;32853;52.164;5.400;2023-04-21T13:04:05;24.90;;;13.60;;
47103;SDS011;32853;52.164;5.400;2023-04-21T13:06:33;25.45;;;13.63;;
47103;SDS011;32853;52.164;5.400;2023-04-21T13:09:05;27.38;;;13.70;;
47103;SDS011;32853;52.164;5.400;2023-04-21T13:11:30;24.52;;;13.98;;
47103;SDS011;32853;52.164;5.400;2023-04-21T13:14:05;22.33;;;13.65;;
47103;SDS011;32853;52.164;5.400;2023-04-21T13:16:30;22.58;;;12.63;;
47103;SDS011;32853;52.164;5.400;2023-04-21T13:18:57;24.13;;;13.70;;
47103;SDS011;32853;52.164;5.400;2023-04-21T13:26:38;25.00;;;13.70;;
47103;SDS011;32853;52.164;5.400;2023-04-21T13:29:04;27.58;;;13.65;;
47103;SDS011;32853;52.164;5.400;2023-04-21T13:31:29;25.88;;;13.77;;
47103;SDS011;32853;52.164;5.400;2023-04-21T13:33:56;31.65;;;15.13;;
47103;SDS011;32853;52.164;5.400;2023-04-21T13:36:24;25.20;;;15.63;;
47103;SDS011;32853;52.164;5.400;2023-04-21T13:38:54;24.08;;;15.13;;
47103;SDS011;32853;52.164;5.400;2023-04-21T13:41:20;26.05;;;15.75;;
47103;SDS011;32853;52.164;5.400;2023-04-21T13:43:47;24.45;;;14.20;;
47103;SDS011;32853;52.164;5.400;2023-04-21T13:46:13;22.80;;;13.63;;
47103;SDS011;32853;52.164;5.400;2023-04-21T13:48:40;24.13;;;12.60;;
47103;SDS011;32853;52.164;5.400;2023-04-21T13:51:12;20.52;;;13.13;;
47103;SDS011;32853;52.164;5.400;2023-04-21T13:56:10;26.90;;;13.70;;
47103;SDS011;32853;52.164;5.400;2023-04-21T13:58:38;31.10;;;15.05;;
47103;SDS011;32853;52.164;5.400;2023-04-21T14:01:04;24.63;;;12.50;;
47103;SDS011;32853;52.164;5.400;2023-04-21T14:03:31;20.48;;;11.27;;
47103;SDS011;32853;52.164;5.400;2023-04-21T14:06:02;22.17;;;11.18;;
47103;SDS011;32853;52.164;5.400;2023-04-21T14:08:28;21.60;;;12.02;;
47103;SDS011;32853;52.164;5.400;2023-04-21T14:10:53;16.75;;;10.48;;
47103;SDS011;32853;52.164;5.400;2023-04-21T14:13:18;16.88;;;10.70;;
47103;SDS011;32853;52.164;5.400;2023-04-21T14:15:44;24.80;;;12.27;;
47103;SDS011;32853;52.164;5.400;2023-04-21T14:18:09;17.75;;;11.13;;
47103;SDS011;32853;52.164;5.400;2023-04-21T14:20:34;20.65;;;11.23;;
47103;SDS011;32853;52.164;5.400;2023-04-21T14:23:00;18.55;;;10.35;;
47103;SDS011;32853;52.164;5.400;2023-04-21T14:25:25;24.60;;;11.32;;
47103;SDS011;32853;52.164;5.400;2023-04-21T14:27:50;20.98;;;11.07;;
47103;SDS011;32853;52.164;5.400;2023-04-21T14:30:16;20.20;;;9.77;;
47103;SDS011;32853;52.164;5.400;2023-04-21T14:32:41;16.55;;;9.57;;
47103;SDS011;32853;52.164;5.400;2023-04-21T14:35:09;17.02;;;9.68;;
47103;SDS011;32853;52.164;5.400;2023-04-21T14:37:35;16.27;;;10.05;;
47103;SDS011;32853;52.164;5.400;2023-04-21T14:40:01;14.20;;;9.45;;
47103;SDS011;32853;52.164;5.400;2023-04-21T14:42:28;21.95;;;10.63;;
47103;SDS011;32853;52.164;5.400;2023-04-21T14:44:53;18.42;;;8.80;;
47103;SDS011;32853;52.164;5.400;2023-04-21T14:47:19;17.60;;;10.02;;
47103;SDS011;32853;52.164;5.400;2023-04-21T14:49:45;15.90;;;9.05;;
47103;SDS011;32853;52.164;5.400;2023-04-21T14:52:11;15.00;;;9.57;;
47103;SDS011;32853;52.164;5.400;2023-04-21T14:54:37;15.32;;;8.50;;
47103;SDS011;32853;52.164;5.400;2023-04-21T14:57:02;14.45;;;8.75;;
47103;SDS011;32853;52.164;5.400;2023-04-21T14:59:27;18.23;;;9.65;;
47103;SDS011;32853;52.164;5.400;2023-04-21T15:01:53;16.33;;;9.88;;
47103;SDS011;32853;52.164;5.400;2023-04-21T15:04:18;15.73;;;9.55;;
47103;SDS011;32853;52.164;5.400;2023-04-21T15:06:44;17.95;;;10.50;;
47103;SDS011;32853;52.164;5.400;2023-04-21T15:09:09;13.73;;;9.95;;
47103;SDS011;32853;52.164;5.400;2023-04-21T15:11:35;19.23;;;11.07;;
47103;SDS011;32853;52.164;5.400;2023-04-21T15:14:02;14.77;;;9.98;;
47103;SDS011;32853;52.164;5.400;2023-04-21T15:16:27;15.15;;;9.82;;
47103;SDS011;32853;52.164;5.400;2023-04-21T15:18:53;19.67;;;11.07;;
47103;SDS011;32853;52.164;5.400;2023-04-21T15:21:20;24.35;;;11.25;;
47103;SDS011;32853;52.164;5.400;2023-04-21T15:23:53;19.33;;;11.45;;
47103;SDS011;32853;52.164;5.400;2023-04-21T15:26:20;22.30;;;11.25;;
47103;SDS011;32853;52.164;5.400;2023-04-21T15:28:45;19.83;;;11.25;;
47103;SDS011;32853;52.164;5.400;2023-04-21T15:31:11;19.70;;;11.75;;
47103;SDS011;32853;52.164;5.400;2023-04-21T15:33:38;18.63;;;11.25;;
47103;SDS011;32853;52.164;5.400;2023-04-21T15:36:04;21.48;;;11.90;;
47103;SDS011;32853;52.164;5.400;2023-04-21T15:38:29;18.98;;;12.27;;
47103;SDS011;32853;52.164;5.400;2023-04-21T15:40:57;20.10;;;11.70;;
47103;SDS011;32853;52.164;5.400;2023-04-21T15:43:22;17.98;;;11.77;;
47103;SDS011;32853;52.164;5.400;2023-04-21T15:45:48;21.15;;;11.77;;
47103;SDS011;32853;52.164;5.400;2023-04-21T15:48:13;20.05;;;12.23;;